Time;durP1;ratioP1;P1;durP2;ratioP2;P2;SDS_P1;SDS_P2;PMS_P1;PMS_P2;Temp;Humidity;BMP_temperature;BMP_pressure;BME280_temperature;BME280_humidity;BME280_pressure;Samples;Min_cycle;Max_cycle;Signal;HPM_P1;HPM_P2
2022/07/30 00:01:35;;;;;;;62.55;58.78;;;;;;;18.35;75.72;96748.16;5054493;28;20181;-65
2022/07/30 00:04:01;;;;;;;55.47;52.47;;;;;;;18.21;76.66;96747.19;5054168;28;20273;-64
2022/07/30 00:06:26;;;;;;;54.70;51.73;;;;;;;17.99;77.50;96746.81;5053839;28;20193;-64
2022/07/30 00:08:51;;;;;;;54.85;51.83;;;;;;;18.01;77.66;96755.25;5054011;28;20185;-64
2022/07/30 00:11:17;;;;;;;60.13;56.72;;;;;;;18.08;76.72;96745.94;5054100;28;20201;-64
2022/07/30 00:13:42;;;;;;;75.07;71.05;;;;;;;18.10;77.80;96745.69;5053762;28;20266;-64
2022/07/30 00:16:07;;;;;;;75.75;71.50;;;;;;;18.10;77.27;96749.13;5053587;28;20201;-64
2022/07/30 00:18:33;;;;;;;60.17;56.53;;;;;;;18.04;75.94;96744.13;5053673;28;20181;-64
2022/07/30 00:20:58;;;;;;;53.50;50.40;;;;;;;18.08;75.84;96743.28;5053910;28;20178;-64
2022/07/30 00:23:23;;;;;;;192.33;182.10;;;;;;;18.10;73.82;96746.47;5053382;28;20183;-64
2022/07/30 00:25:49;;;;;;;142.23;134.40;;;;;;;18.20;73.87;96745.59;5053540;28;20181;-65
2022/07/30 00:28:14;;;;;;;80.38;75.72;;;;;;;18.21;74.34;96745.34;5043223;28;20190;-64
2022/07/30 00:30:39;;;;;;;50.43;47.67;;;;;;;18.16;74.89;96742.72;5033862;28;20194;-64
2022/07/30 00:33:05;;;;;;;51.35;48.22;;;;;;;18.15;75.76;96746.44;5037173;28;20178;-65
2022/07/30 00:35:31;;;;;;;45.93;43.23;;;;;;;18.26;76.20;96739.19;5053608;28;20174;-64
2022/07/30 00:37:56;;;;;;;119.67;113.10;;;;;;;18.08;79.75;96747.81;5052772;28;20201;-64
2022/07/30 00:40:22;;;;;;;101.97;96.47;;;;;;;18.02;80.54;96754.19;5053098;28;20182;-64
2022/07/30 00:42:47;;;;;;;85.70;80.97;;;;;;;17.95;81.16;96753.72;5052577;28;20713;-65
2022/07/30 00:45:15;;;;;;;42.13;39.65;;;;;;;18.01;82.48;96750.75;5053389;28;20174;-64
2022/07/30 00:47:41;;;;;;;114.45;108.13;;;;;;;17.92;84.93;96754.25;5053132;28;20277;-65
2022/07/30 00:50:09;;;;;;;21.38;20.08;;;;;;;18.03;85.95;96758.44;5053221;28;20248;-64
2022/07/30 00:52:37;;;;;;;19.77;18.55;;;;;;;18.17;85.89;96754.91;5052714;28;20178;-65
2022/07/30 00:55:03;;;;;;;17.33;16.17;;;;;;;18.20;86.45;96759.66;5053194;28;20256;-65
2022/07/30 00:57:28;;;;;;;41.57;38.87;;;;;;;17.90;88.61;96757.19;5053086;28;20276;-64
2022/07/30 00:59:54;;;;;;;74.03;69.80;;;;;;;17.94;89.00;96757.44;5053406;28;20198;-64
2022/07/30 01:02:19;;;;;;;77.83;73.50;;;;;;;17.80;89.96;96766.00;5052917;28;20182;-65
2022/07/30 01:04:45;;;;;;;71.50;67.30;;;;;;;17.81;90.28;96764.94;5053009;28;20185;-65
2022/07/30 01:07:10;;;;;;;65.23;61.47;;;;;;;17.83;89.49;96762.00;5052729;28;20292;-65
2022/07/30 01:09:36;;;;;;;68.73;64.77;;;;;;;17.78;89.74;96770.75;5052965;28;20216;-64
2022/07/30 01:12:02;;;;;;;62.40;58.92;;;;;;;17.77;90.71;96771.06;5053001;28;20188;-64
2022/07/30 01:14:27;;;;;;;57.37;54.07;;;;;;;17.75;90.80;96765.22;5052897;28;20194;-64
2022/07/30 01:16:53;;;;;;;53.30;50.30;;;;;;;17.84;90.07;96771.53;5052483;28;20243;-64
2022/07/30 01:22:25;;;;;;;55.88;52.63;;;;;;;18.06;89.52;96777.25;5052738;28;20216;-64
2022/07/30 01:24:59;;;;;;;52.10;49.10;;;;;;;18.16;88.94;96781.72;5052278;28;20181;-64
2022/07/30 01:27:27;;;;;;;51.47;48.55;;;;;;;17.85;90.29;96792.47;5051654;28;20275;-64
2022/07/30 01:29:55;;;;;;;54.40;51.08;;;;;;;17.77;91.25;96784.31;5053007;28;20174;-64
2022/07/30 01:32:24;;;;;;;52.80;49.70;;;;;;;17.96;90.19;96784.47;5052514;28;20220;-64
2022/07/30 01:34:51;;;;;;;49.97;46.85;;;;;;;17.86;90.46;96782.66;5052713;28;20186;-64
2022/07/30 01:37:17;;;;;;;51.38;48.35;;;;;;;17.88;90.11;96785.84;5052455;28;20247;-64
2022/07/30 01:39:43;;;;;;;52.15;49.25;;;;;;;17.97;89.74;96786.84;5053134;28;20549;-64
2022/07/30 01:42:12;;;;;;;52.70;49.70;;;;;;;18.04;88.97;96790.00;5051386;28;20719;-64
2022/07/30 01:44:39;;;;;;;47.15;44.55;;;;;;;18.00;89.37;96788.94;5052369;28;20669;-64
2022/07/30 01:47:06;;;;;;;48.60;45.80;;;;;;;17.98;89.67;96788.44;5052379;28;20891;-64
2022/07/30 01:49:35;;;;;;;47.50;44.70;;;;;;;17.92;89.97;96791.41;5052521;28;20182;-64
2022/07/30 01:52:02;;;;;;;47.92;45.33;;;;;;;17.93;88.33;96793.78;5068450;28;20177;-64
2022/07/30 01:54:29;;;;;;;43.30;40.85;;;;;;;18.08;87.25;96787.59;5054697;28;20182;-64
2022/07/30 01:56:56;;;;;;;41.20;38.83;;;;;;;17.96;88.04;96793.22;5056443;28;20276;-65
2022/07/30 01:59:23;;;;;;;42.35;39.90;;;;;;;17.92;88.75;96786.88;5056453;28;20595;-63
2022/07/30 02:01:49;;;;;;;46.53;43.67;;;;;;;17.91;89.22;96793.25;5056624;28;20196;-63
2022/07/30 02:04:15;;;;;;;53.78;50.72;;;;;;;17.94;89.25;96797.22;5055354;28;20178;-64
2022/07/30 02:06:58;;;;;;;56.65;53.38;;;;;;;17.84;90.12;96801.50;5056455;28;20198;-63
2022/07/30 02:09:32;;;;;;;142.73;135.03;;;;;;;18.00;89.87;96798.78;5056172;28;20178;-63
2022/07/30 02:14:49;;;;;;;25.25;23.25;;;;;;;17.77;92.86;96795.72;5036325;28;20189;-63
2022/07/30 02:17:21;;;;;;;29.70;27.83;;;;;;;17.56;94.45;96798.66;5035893;28;20258;-63
2022/07/30 02:19:50;;;;;;;44.60;42.07;;;;;;;17.38;96.01;96795.56;5036313;28;20171;-63
2022/07/30 02:22:18;;;;;;;54.43;51.33;;;;;;;17.32;96.60;96795.81;5036563;28;20191;-63
2022/07/30 02:24:44;;;;;;;63.92;59.75;;;;;;;17.23;96.51;96792.91;5055792;28;20178;-63
2022/07/30 02:27:16;;;;;;;71.15;66.60;;;;;;;17.25;96.44;96798.75;5054570;28;20201;-63
2022/07/30 02:29:44;;;;;;;65.47;61.77;;;;;;;17.23;96.20;96792.91;5056063;28;20190;-63
2022/07/30 02:32:15;;;;;;;60.87;57.37;;;;;;;17.13;97.11;96790.28;5055875;28;20186;-63
2022/07/30 02:34:42;;;;;;;61.43;58.03;;;;;;;17.10;96.46;96790.84;5055492;28;20483;-64
2022/07/30 02:37:11;;;;;;;62.50;58.70;;;;;;;17.03;96.58;96788.47;5055876;28;20182;-63
2022/07/30 02:39:38;;;;;;;62.97;59.47;;;;;;;17.00;96.98;96790.84;5055826;28;20267;-63
2022/07/30 02:42:06;;;;;;;65.77;62.07;;;;;;;16.84;98.21;96794.56;5055700;28;20221;-65
2022/07/30 02:44:34;;;;;;;57.67;54.47;;;;;;;16.85;98.44;96794.31;5055718;28;20167;-63
2022/07/30 02:47:01;;;;;;;61.83;58.30;;;;;;;16.82;98.72;96797.50;5055540;28;20225;-63
2022/07/30 02:49:29;;;;;;;63.77;59.80;;;;;;;16.97;96.22;96805.41;5055545;28;20169;-63
2022/07/30 02:51:56;;;;;;;59.00;55.80;;;;;;;16.99;95.22;96805.16;5055394;28;20194;-63
2022/07/30 02:54:24;;;;;;;57.03;53.87;;;;;;;16.99;94.31;96813.91;5055169;28;20185;-63
2022/07/30 02:56:50;;;;;;;62.07;58.63;;;;;;;16.90;95.11;96815.47;5055589;28;20201;-63
2022/07/30 02:59:18;;;;;;;63.70;60.07;;;;;;;16.96;95.06;96808.31;5055795;28;20266;-63
2022/07/30 03:01:45;;;;;;;56.67;53.53;;;;;;;17.03;94.35;96811.50;5055384;28;20227;-63
2022/07/30 03:04:12;;;;;;;57.90;54.57;;;;;;;16.91;93.92;96813.63;5054505;28;20193;-63
2022/07/30 03:06:40;;;;;;;57.67;54.37;;;;;;;16.91;93.32;96813.63;5055086;28;20202;-63
2022/07/30 03:09:08;;;;;;;58.17;54.73;;;;;;;16.98;92.67;96820.25;5055390;28;20192;-64
2022/07/30 03:11:34;;;;;;;35.03;32.90;;;;;;;16.87;91.25;96813.38;5055445;28;20280;-63
2022/07/30 03:13:59;;;;;;;55.57;52.27;;;;;;;16.90;89.03;96822.63;5055184;28;20608;-63
2022/07/30 03:16:26;;;;;;;47.67;44.77;;;;;;;17.07;86.40;96817.03;5054689;28;20186;-63
2022/07/30 03:18:53;;;;;;;41.70;39.33;;;;;;;17.15;85.06;96825.25;5054979;28;20182;-64
2022/07/30 03:21:22;;;;;;;36.50;34.07;;;;;;;17.17;83.31;96823.13;5054958;28;20244;-64
2022/07/30 03:23:49;;;;;;;37.87;35.37;;;;;;;17.20;82.78;96816.50;5054622;28;20269;-63
2022/07/30 03:26:18;;;;;;;33.97;32.00;;;;;;;17.16;82.22;96826.06;5054365;28;20686;-64
2022/07/30 03:28:45;;;;;;;51.17;48.13;;;;;;;17.16;81.54;96824.22;5053804;28;20196;-64
2022/07/30 03:31:13;;;;;;;67.77;63.80;;;;;;;17.08;81.64;96824.75;5054926;28;20177;-64
2022/07/30 03:33:40;;;;;;;86.63;81.87;;;;;;;17.12;80.47;96825.00;5054684;28;20260;-64
2022/07/30 03:36:07;;;;;;;53.57;50.13;;;;;;;17.08;79.91;96830.03;5054335;28;20188;-64
2022/07/30 03:38:35;;;;;;;57.63;54.33;;;;;;;17.18;79.11;96829.22;5053584;28;20265;-64
2022/07/30 03:41:01;;;;;;;45.57;42.97;;;;;;;17.19;79.05;96820.22;5053414;28;20588;-64
2022/07/30 03:43:27;;;;;;;42.40;39.97;;;;;;;17.11;78.99;96831.38;5054498;28;20221;-64
2022/07/30 03:45:54;;;;;;;47.30;44.60;;;;;;;17.14;78.52;96831.63;5054416;28;20186;-64
2022/07/30 03:48:20;;;;;;;53.67;50.20;;;;;;;17.11;77.93;96834.00;5054341;28;20182;-64
2022/07/30 03:50:46;;;;;;;54.97;51.83;;;;;;;17.11;77.22;96831.38;5054281;28;20537;-64
2022/07/30 03:53:12;;;;;;;67.00;63.20;;;;;;;17.12;77.00;96832.94;5054467;28;20268;-64
2022/07/30 03:55:38;;;;;;;63.33;59.73;;;;;;;17.12;76.66;96840.88;5054323;28;20264;-64
2022/07/30 03:58:05;;;;;;;66.23;62.73;;;;;;;17.07;76.97;96846.19;5054419;28;20221;-65
2022/07/30 04:00:31;;;;;;;58.47;54.83;;;;;;;17.04;77.13;96847.53;5054047;28;20638;-64
2022/07/30 04:02:56;;;;;;;64.23;60.57;;;;;;;17.07;77.09;96849.63;5054248;28;20184;-65
2022/07/30 04:05:22;;;;;;;64.97;61.40;;;;;;;17.12;76.70;96852.28;5052523;28;20269;-64
2022/07/30 04:07:48;;;;;;;61.00;57.63;;;;;;;17.22;76.26;96856.78;5054015;28;20208;-64
2022/07/30 04:10:14;;;;;;;64.17;60.20;;;;;;;17.27;76.48;96862.06;5054185;28;20190;-64
2022/07/30 04:12:40;;;;;;;66.43;62.67;;;;;;;17.44;75.34;96865.22;5054174;28;20194;-64
2022/07/30 04:15:06;;;;;;;60.57;57.27;;;;;;;17.46;74.76;96863.88;5053422;28;20185;-64
2022/07/30 04:17:39;;;;;;;62.90;59.40;;;;;;;17.56;74.21;96862.25;5052549;28;20261;-64
2022/07/30 04:20:09;;;;;;;56.40;53.20;;;;;;;17.63;74.60;96866.25;5054416;28;20216;-65
2022/07/30 04:22:36;;;;;;;71.63;67.53;;;;;;;17.74;73.63;96880.28;5053598;28;20190;-64
2022/07/30 04:25:05;;;;;;;158.03;149.50;;;;;;;17.80;73.21;96881.88;5052515;28;20189;-64
2022/07/30 04:27:31;;;;;;;179.87;170.20;;;;;;;17.86;72.78;96878.94;5050780;28;20280;-64
2022/07/30 04:29:57;;;;;;;144.40;136.70;;;;;;;17.91;72.43;96882.63;5053412;28;20256;-65
2022/07/30 04:32:22;;;;;;;128.07;121.30;;;;;;;17.97;72.20;96887.66;5053390;28;20253;-64
2022/07/30 04:34:50;;;;;;;111.53;105.37;;;;;;;17.93;72.58;96885.81;5053620;28;20181;-64
2022/07/30 04:37:17;;;;;;;132.97;126.07;;;;;;;18.09;72.05;96890.78;5053777;28;20181;-64
2022/07/30 04:39:43;;;;;;;134.93;127.80;;;;;;;18.21;71.69;96891.28;5053574;28;20547;-64
2022/07/30 04:42:09;;;;;;;111.70;105.30;;;;;;;18.26;71.71;96901.06;5052989;28;20236;-64
2022/07/30 04:44:34;;;;;;;130.17;123.33;;;;;;;18.23;71.17;96898.94;5052747;28;20186;-65
2022/07/30 04:46:59;;;;;;;163.18;154.68;;;;;;;18.26;70.87;96906.38;5053287;28;20205;-65
2022/07/30 04:49:26;;;;;;;154.50;146.38;;;;;;;18.34;71.10;96902.34;5060537;28;20185;-64
2022/07/30 04:51:53;;;;;;;196.95;186.30;;;;;;;18.37;70.93;96902.59;5072140;28;20263;-65
2022/07/30 04:54:20;;;;;;;271.77;257.13;;;;;;;18.34;71.07;96905.78;5071974;28;20703;-65
2022/07/30 04:56:47;;;;;;;286.92;271.73;;;;;;;18.41;70.97;96908.94;5053360;28;20623;-65
2022/07/30 04:59:15;;;;;;;306.35;290.10;;;;;;;18.64;70.62;96907.53;5053171;28;20284;-65
2022/07/30 05:01:41;;;;;;;250.63;237.02;;;;;;;18.86;69.57;96905.25;5053507;28;20262;-65
2022/07/30 05:04:09;;;;;;;184.18;174.20;;;;;;;18.98;68.88;96900.41;5051577;28;20628;-65
2022/07/30 05:06:36;;;;;;;193.40;183.27;;;;;;;19.39;67.45;96908.06;5053131;28;20206;-65
2022/07/30 05:09:03;;;;;;;210.35;199.10;;;;;;;19.69;66.22;96910.44;5053025;28;20178;-64
2022/07/30 05:11:28;;;;;;;167.13;158.30;;;;;;;19.99;65.12;96912.00;5052874;28;20186;-65
2022/07/30 05:13:53;;;;;;;108.75;102.82;;;;;;;20.27;64.56;96913.00;5052857;28;20212;-66
2022/07/30 05:16:19;;;;;;;85.40;80.70;;;;;;;20.30;64.16;96920.41;5052665;28;20190;-65
2022/07/30 05:18:44;;;;;;;73.55;69.57;;;;;;;20.66;63.12;96913.59;5052578;28;20182;-65
2022/07/30 05:21:09;;;;;;;56.83;53.75;;;;;;;20.83;62.45;96920.28;5052824;28;20273;-65
2022/07/30 05:23:35;;;;;;;68.40;64.78;;;;;;;20.95;62.53;96917.97;5052472;28;20279;-66
2022/07/30 05:26:00;;;;;;;131.98;125.20;;;;;;;20.95;62.08;96915.31;5052596;28;20197;-66
2022/07/30 05:28:26;;;;;;;102.75;97.38;;;;;;;20.90;62.18;96923.38;5032509;28;20187;-65
2022/07/30 05:30:52;;;;;;;72.80;68.90;;;;;;;21.32;60.79;96914.50;5033280;28;20197;-66
2022/07/30 05:33:19;;;;;;;70.55;66.75;;;;;;;21.38;60.50;96922.13;5032895;28;20182;-66
2022/07/30 05:35:44;;;;;;;61.75;58.22;;;;;;;21.47;60.43;96931.03;5044520;28;20279;-65
2022/07/30 05:38:09;;;;;;;60.20;56.97;;;;;;;21.90;59.56;96925.50;5052782;28;20638;-66
2022/07/30 05:40:35;;;;;;;50.30;47.25;;;;;;;21.36;60.04;96934.16;5052806;28;20545;-66
2022/07/30 05:43:00;;;;;;;55.92;52.60;;;;;;;21.62;60.04;96929.19;5052515;28;20644;-66
2022/07/30 05:45:25;;;;;;;49.00;46.17;;;;;;;21.60;59.28;96929.47;5052006;28;20190;-65
2022/07/30 05:47:51;;;;;;;69.35;65.28;;;;;;;20.83;60.51;96926.41;5051769;28;20202;-65
2022/07/30 05:50:16;;;;;;;47.75;44.83;;;;;;;21.46;59.29;96928.63;5070537;28;20192;-66
2022/07/30 05:52:41;;;;;;;81.60;76.95;;;;;;;21.74;57.79;96929.50;5072676;28;20272;-66
2022/07/30 05:55:08;;;;;;;68.50;64.82;;;;;;;22.07;57.06;96925.69;5072537;28;20197;-66
2022/07/30 05:57:35;;;;;;;54.88;51.75;;;;;;;21.74;57.51;96927.63;5057198;28;20201;-66
2022/07/30 06:00:01;;;;;;;57.97;54.88;;;;;;;21.97;57.07;96925.91;5052388;28;20282;-66
2022/07/30 06:02:27;;;;;;;55.42;52.17;;;;;;;22.23;56.37;96924.34;5051016;28;20178;-66
2022/07/30 06:04:52;;;;;;;52.20;49.33;;;;;;;22.49;55.08;96929.16;5052436;28;20193;-65
2022/07/30 06:07:18;;;;;;;57.83;54.03;;;;;;;22.45;55.46;96934.31;5052231;28;20206;-66
2022/07/30 06:09:43;;;;;;;56.50;52.85;;;;;;;22.47;54.89;96934.78;5052563;28;20261;-66
2022/07/30 06:12:08;;;;;;;43.08;40.72;;;;;;;22.86;54.07;96941.47;5052464;28;20584;-66
2022/07/30 06:14:34;;;;;;;37.00;34.92;;;;;;;22.82;53.71;96946.63;5052320;28;20178;-66
2022/07/30 06:16:59;;;;;;;64.50;60.72;;;;;;;22.77;53.70;96942.19;5051848;28;20529;-66
2022/07/30 06:19:25;;;;;;;88.28;83.72;;;;;;;23.13;53.27;96941.38;5052246;28;20217;-65
2022/07/30 06:21:50;;;;;;;86.22;81.72;;;;;;;23.40;53.01;96943.97;5052456;28;20183;-65
2022/07/30 06:24:15;;;;;;;111.82;105.88;;;;;;;23.15;53.15;96949.91;5052234;28;20601;-65
2022/07/30 06:26:41;;;;;;;87.25;82.57;;;;;;;23.49;53.39;96952.88;5050875;28;20202;-65
2022/07/30 06:29:06;;;;;;;81.47;77.15;;;;;;;23.75;52.88;96952.22;5052388;28;20253;-65
2022/07/30 06:31:32;;;;;;;99.07;93.80;;;;;;;23.99;52.75;96950.78;5050541;28;20531;-67
2022/07/30 06:33:57;;;;;;;233.50;222.02;;;;;;;23.92;52.31;96949.63;5051584;28;20205;-65
2022/07/30 06:36:22;;;;;;;216.75;205.63;;;;;;;24.08;51.21;96950.00;5051824;28;20283;-65
2022/07/30 06:38:48;;;;;;;255.38;242.38;;;;;;;23.32;52.79;96951.91;5052026;28;20182;-65
2022/07/30 06:41:14;;;;;;;306.35;290.17;;;;;;;23.79;51.74;96948.63;5054356;28;20194;-65
2022/07/30 06:43:40;;;;;;;420.25;398.30;;;;;;;23.55;52.05;96948.97;5055207;28;20792;-65
2022/07/30 06:46:05;;;;;;;540.55;511.58;;;;;;;24.13;50.39;96955.25;5055157;28;20265;-65
2022/07/30 06:48:31;;;;;;;587.60;555.47;;;;;;;23.69;50.38;96951.56;5054824;28;20178;-65
2022/07/30 06:50:56;;;;;;;573.97;542.70;;;;;;;23.79;50.95;96955.88;5055697;28;20181;-65
2022/07/30 06:53:22;;;;;;;598.35;565.67;;;;;;;23.63;50.96;96957.38;5055248;28;20535;-66
2022/07/30 06:55:49;;;;;;;569.35;537.97;;;;;;;23.48;51.42;96966.53;5055658;28;20185;-65
2022/07/30 06:58:14;;;;;;;493.83;467.45;;;;;;;23.72;52.21;96964.34;5054687;28;20213;-65
2022/07/30 07:00:41;;;;;;;572.55;540.63;;;;;;;23.47;51.36;96967.63;5055146;28;20182;-66
2022/07/30 07:03:07;;;;;;;621.42;586.67;;;;;;;22.48;53.11;96963.09;5055181;28;20636;-66
2022/07/30 07:05:32;;;;;;;271.52;257.13;;;;;;;22.54;53.55;96961.09;5055135;28;20276;-65
2022/07/30 07:07:58;;;;;;;377.70;357.52;;;;;;;23.03;51.53;96958.47;5054875;28;20609;-65
2022/07/30 07:10:23;;;;;;;499.38;472.05;;;;;;;22.63;52.38;96960.09;5054992;28;20265;-65
2022/07/30 07:12:48;;;;;;;314.15;297.40;;;;;;;22.73;52.55;96959.94;5055167;28;20193;-65
2022/07/30 07:15:14;;;;;;;321.77;304.55;;;;;;;23.08;51.19;96970.91;5055044;28;20211;-64
2022/07/30 07:17:40;;;;;;;334.80;316.73;;;;;;;23.30;51.40;96970.94;5053652;28;20255;-66
2022/07/30 07:20:06;;;;;;;365.92;346.73;;;;;;;23.32;50.89;96971.44;5054798;28;20178;-66
2022/07/30 07:22:32;;;;;;;304.95;288.65;;;;;;;23.64;50.78;96970.41;5055042;28;20565;-65
2022/07/30 07:24:57;;;;;;;453.52;428.85;;;;;;;23.72;50.04;96977.72;5054552;28;20182;-66
2022/07/30 07:27:22;;;;;;;503.00;475.38;;;;;;;23.45;50.78;96973.28;5053217;28;20210;-66
2022/07/30 07:29:48;;;;;;;494.83;467.85;;;;;;;23.86;49.85;96973.06;5053857;28;20229;-67
2022/07/30 07:32:13;;;;;;;641.75;605.40;;;;;;;23.59;49.11;96967.88;5054027;28;20182;-66
2022/07/30 07:34:39;;;;;;;715.10;674.53;;;;;;;23.38;49.06;96977.47;5054479;28;20245;-65
2022/07/30 07:37:04;;;;;;;465.30;439.85;;;;;;;22.60;51.66;96966.06;5054384;28;20185;-65
2022/07/30 07:39:29;;;;;;;438.38;414.83;;;;;;;22.62;50.99;96976.44;5054603;28;20201;-64
2022/07/30 07:41:55;;;;;;;367.17;347.73;;;;;;;22.78;50.03;96967.84;5054073;28;20283;-66
2022/07/30 07:44:20;;;;;;;301.27;285.05;;;;;;;23.02;50.28;96964.91;5052081;28;20639;-66
2022/07/30 07:46:46;;;;;;;361.58;342.35;;;;;;;23.72;49.10;96974.25;5053670;28;20202;-67
2022/07/30 07:49:11;;;;;;;590.92;558.17;;;;;;;23.02;49.34;96982.81;5053576;28;20265;-67
2022/07/30 07:51:37;;;;;;;424.25;401.10;;;;;;;23.49;49.08;96976.94;5053403;28;20225;-69
2022/07/30 07:54:02;;;;;;;519.47;490.75;;;;;;;23.83;48.23;96978.25;5054015;28;20276;-66
2022/07/30 07:56:28;;;;;;;700.60;661.20;;;;;;;23.47;47.59;96981.78;5054170;28;20189;-67
2022/07/30 07:58:53;;;;;;;673.53;636.38;;;;;;;23.40;48.44;96978.75;5054270;28;20205;-67
2022/07/30 08:01:20;;;;;;;696.47;657.58;;;;;;;23.33;48.35;96983.72;5053912;28;20190;-68
2022/07/30 08:03:46;;;;;;;683.75;646.83;;;;;;;23.31;47.19;96977.09;5052566;28;20699;-66
2022/07/30 08:06:11;;;;;;;404.02;383.10;;;;;;;23.53;46.25;96982.47;5053670;28;20261;-66
2022/07/30 08:08:37;;;;;;;322.58;306.73;;;;;;;23.14;44.51;96967.84;5053653;28;20174;-66
2022/07/30 08:11:04;;;;;;;280.27;266.42;;;;;;;22.75;47.59;96979.13;5053408;28;20188;-65
2022/07/30 08:13:29;;;;;;;524.13;497.48;;;;;;;23.34;47.81;96979.97;5053889;28;20182;-67
2022/07/30 08:15:55;;;;;;;480.85;456.48;;;;;;;23.53;46.96;96977.13;5053338;28;20537;-66
2022/07/30 08:18:20;;;;;;;537.42;509.92;;;;;;;23.80;46.70;96973.50;5053453;28;20265;-67
2022/07/30 08:20:45;;;;;;;420.00;398.67;;;;;;;23.90;46.20;96984.75;5053870;28;20269;-68
2022/07/30 08:23:11;;;;;;;356.65;338.30;;;;;;;23.84;46.27;96975.28;5053778;28;20178;-68
2022/07/30 08:25:36;;;;;;;332.10;315.50;;;;;;;24.26;45.48;96981.16;5052880;28;20225;-68
2022/07/30 08:28:02;;;;;;;356.75;338.95;;;;;;;24.34;45.06;96972.38;5053214;28;20202;-68
2022/07/30 08:30:28;;;;;;;365.63;347.35;;;;;;;24.32;44.29;96974.56;5053219;28;20251;-68
2022/07/30 08:32:54;;;;;;;304.50;289.55;;;;;;;23.61;45.63;96974.50;5053630;28;20182;-68
2022/07/30 08:35:19;;;;;;;333.85;317.70;;;;;;;23.60;45.50;96972.13;5053581;28;20269;-68
2022/07/30 08:37:45;;;;;;;372.33;354.30;;;;;;;23.92;46.30;96979.09;5053594;28;20194;-68
2022/07/30 08:40:11;;;;;;;381.80;363.15;;;;;;;23.93;45.50;96973.44;5052977;28;20182;-68
2022/07/30 08:42:37;;;;;;;397.23;377.80;;;;;;;24.16;45.81;96979.53;5052827;28;20230;-69
2022/07/30 08:45:04;;;;;;;419.10;398.90;;;;;;;24.02;46.07;96981.50;5053215;28;20272;-68
2022/07/30 08:47:33;;;;;;;401.17;381.10;;;;;;;24.52;45.47;96979.34;5052955;28;20313;-67
2022/07/30 08:50:03;;;;;;;387.95;368.83;;;;;;;24.83;44.49;96976.59;5052906;28;20538;-66
2022/07/30 08:52:31;;;;;;;255.82;243.25;;;;;;;25.03;44.21;96988.63;5053620;28;20262;-66
2022/07/30 08:54:59;;;;;;;258.23;245.25;;;;;;;24.17;43.92;96981.09;5053188;28;20625;-65
2022/07/30 08:57:28;;;;;;;280.83;266.73;;;;;;;23.89;43.96;96983.19;5053149;28;20185;-70
2022/07/30 08:59:55;;;;;;;166.57;157.77;;;;;;;24.42;44.21;96980.44;5052957;28;20281;-71
2022/07/30 09:02:21;;;;;;;151.65;143.85;;;;;;;25.01;42.70;96980.13;5052572;28;20186;-71
2022/07/30 09:04:46;;;;;;;303.73;288.92;;;;;;;24.86;43.12;96982.13;5052722;28;20271;-70
2022/07/30 09:07:12;;;;;;;486.77;461.42;;;;;;;23.66;43.97;96992.31;5053183;28;20197;-70
2022/07/30 09:09:37;;;;;;;201.23;191.48;;;;;;;23.47;44.92;96986.34;5053039;28;20182;-70
2022/07/30 09:12:23;;;;;;;197.95;188.18;;;;;;;23.70;44.74;96982.59;5052407;28;20220;-71
2022/07/30 09:15:07;;;;;;;163.13;155.10;;;;;;;23.56;44.39;96984.56;5052832;28;20535;-70
2022/07/30 09:18:05;;;;;;;273.75;260.15;;;;;;;24.09;44.10;96984.53;5051336;28;20200;-72
2022/07/30 09:20:34;;;;;;;198.77;188.88;;;;;;;24.42;43.43;96974.28;5051090;28;20197;-72
2022/07/30 09:23:04;;;;;;;344.30;326.70;;;;;;;24.68;42.94;96980.53;5051032;28;20254;-69
2022/07/30 09:25:33;;;;;;;525.55;496.92;;;;;;;24.85;42.47;96985.13;5050003;28;20274;-72
2022/07/30 09:27:58;;;;;;;560.78;529.30;;;;;;;24.06;43.46;96985.16;5046914;28;20248;-70
2022/07/30 09:30:24;;;;;;;344.83;327.13;;;;;;;23.94;42.63;96983.03;5052597;28;20210;-67
2022/07/30 09:32:54;;;;;;;492.27;467.17;;;;;;;24.70;42.39;96985.56;5052774;28;20204;-69
2022/07/30 09:35:21;;;;;;;315.30;299.85;;;;;;;25.24;40.99;96984.25;5052650;28;20170;-67
2022/07/30 09:37:57;;;;;;;434.50;413.13;;;;;;;25.36;40.46;96984.38;5052694;28;20205;-68
2022/07/30 09:40:23;;;;;;;262.23;248.98;;;;;;;25.22;40.73;96989.13;5032500;28;20170;-68
2022/07/30 09:43:09;;;;;;;496.98;472.08;;;;;;;25.01;41.57;96983.59;5031372;28;20234;-67
2022/07/30 09:45:47;;;;;;;517.78;491.15;;;;;;;25.29;41.90;96984.09;5050508;28;20174;-67
2022/07/30 09:48:25;;;;;;;301.08;286.30;;;;;;;25.60;40.55;96982.03;5052347;28;20279;-67
2022/07/30 09:50:51;;;;;;;330.85;314.42;;;;;;;25.27;41.35;96984.41;5051174;28;20170;-69
2022/07/30 09:53:18;;;;;;;294.42;279.90;;;;;;;24.97;41.40;96981.84;5051530;28;20194;-68
2022/07/30 09:55:44;;;;;;;275.55;261.63;;;;;;;25.09;41.35;96979.31;5052562;28;20178;-68
2022/07/30 09:58:10;;;;;;;243.25;231.30;;;;;;;25.01;40.62;96978.25;5052151;28;20178;-68
2022/07/30 10:00:37;;;;;;;270.35;257.02;;;;;;;25.09;40.86;96973.97;5050939;28;20624;-67
2022/07/30 10:03:25;;;;;;;213.82;203.52;;;;;;;25.33;39.44;96985.03;5052064;28;20201;-67
2022/07/30 10:05:56;;;;;;;214.75;204.38;;;;;;;25.81;39.61;96968.72;5052343;28;20162;-68
2022/07/30 10:08:41;;;;;;;167.95;159.55;;;;;;;25.52;39.85;96985.47;5051918;28;20285;-66
2022/07/30 10:11:11;;;;;;;207.07;197.02;;;;;;;24.67;41.82;96980.81;5052540;28;20562;-66
2022/07/30 10:13:37;;;;;;;321.55;305.65;;;;;;;24.70;41.76;96980.97;5052042;28;20220;-67
2022/07/30 10:16:03;;;;;;;279.10;264.90;;;;;;;24.97;41.90;96976.47;5055231;28;20177;-67
2022/07/30 10:18:30;;;;;;;284.45;270.20;;;;;;;25.18;41.85;96980.13;5056426;28;20178;-66
2022/07/30 10:20:56;;;;;;;175.40;166.57;;;;;;;25.25;39.91;96983.13;5056222;28;20206;-66
2022/07/30 10:23:23;;;;;;;101.65;96.65;;;;;;;24.79;40.01;96978.34;5055623;28;20189;-66
2022/07/30 10:25:49;;;;;;;97.03;92.22;;;;;;;25.30;39.21;96974.16;5055666;28;20190;-66
2022/07/30 10:28:16;;;;;;;172.05;163.82;;;;;;;25.62;37.92;96963.72;5052154;28;20216;-67
2022/07/30 10:30:42;;;;;;;188.13;179.27;;;;;;;25.60;38.53;96965.13;5055718;28;20935;-67
2022/07/30 10:33:08;;;;;;;192.65;183.25;;;;;;;25.52;39.04;96974.72;5055794;28;20264;-67
2022/07/30 10:35:33;;;;;;;211.00;200.95;;;;;;;25.16;39.38;96976.97;5055265;28;20193;-67
2022/07/30 10:38:00;;;;;;;266.75;254.30;;;;;;;24.77;39.88;96962.56;5055847;28;20182;-67
2022/07/30 10:40:32;;;;;;;146.20;139.00;;;;;;;24.67;39.89;96975.47;5055586;28;20663;-67
2022/07/30 10:43:34;;;;;;;125.82;119.50;;;;;;;24.54;40.68;96963.75;5054263;28;20312;-67
2022/07/30 10:46:10;;;;;;;148.00;140.80;;;;;;;24.94;40.19;96967.19;5054280;28;20671;-67
2022/07/30 10:48:35;;;;;;;116.95;111.25;;;;;;;24.55;39.89;96969.91;5055818;28;20200;-67
2022/07/30 10:51:01;;;;;;;140.05;133.23;;;;;;;24.78;40.32;96958.78;5054757;28;20190;-66
2022/07/30 10:53:35;;;;;;;137.93;131.02;;;;;;;25.08;39.92;96964.31;5055114;28;20189;-67
2022/07/30 10:56:22;;;;;;;134.52;127.70;;;;;;;24.81;40.73;96957.34;5055434;28;20180;-67
2022/07/30 10:59:04;;;;;;;119.43;113.70;;;;;;;24.55;40.06;96951.94;5055205;28;20626;-68
2022/07/30 11:01:48;;;;;;;160.35;152.43;;;;;;;24.70;40.79;96964.09;5055405;28;20174;-66
2022/07/30 11:04:24;;;;;;;128.70;122.50;;;;;;;24.83;39.16;96957.81;5055063;28;20196;-66
2022/07/30 11:06:50;;;;;;;185.43;176.45;;;;;;;25.19;38.13;96962.91;5055155;28;20214;-66
2022/07/30 11:09:39;;;;;;;188.88;180.07;;;;;;;25.39;38.93;96958.81;5054748;28;20196;-66
2022/07/30 11:12:06;;;;;;;237.35;225.38;;;;;;;25.47;37.54;96963.38;5055184;28;20589;-67
2022/07/30 11:14:47;;;;;;;297.25;282.02;;;;;;;25.57;37.91;96960.41;5054844;28;20200;-66
2022/07/30 11:17:14;;;;;;;291.33;276.50;;;;;;;25.77;37.48;96964.31;5055229;28;20217;-66